Time;durP1;ratioP1;P1;durP2;ratioP2;P2;SDS_P1;SDS_P2;PMS_P1;PMS_P2;Temp;Humidity;BMP_temperature;BMP_pressure;BME280_temperature;BME280_humidity;BME280_pressure;Samples;Min_cycle;Max_cycle;Signal;HPM_P1;HPM_P2
2023/11/17 00:00:12;;;;;;;14.32;3.05;;;16.10;96.70;;;;;;4932435;29;20051;-67
2023/11/17 00:02:41;;;;;;;17.00;3.20;;;16.20;96.70;;;;;;4932550;29;20151;-67
2023/11/17 00:05:10;;;;;;;12.90;3.00;;;16.20;96.70;;;;;;4934536;29;20047;-67
2023/11/17 00:07:40;;;;;;;12.40;2.55;;;16.20;96.70;;;;;;4931652;29;20515;-67
2023/11/17 00:10:10;;;;;;;13.25;2.97;;;16.20;96.70;;;;;;4936259;29;20054;-67
2023/11/17 00:12:41;;;;;;;16.10;3.40;;;16.30;96.70;;;;;;4931349;29;20051;-68
2023/11/17 00:15:12;;;;;;;14.85;2.88;;;16.30;96.70;;;;;;4932951;29;20057;-67
2023/11/17 00:17:40;;;;;;;18.42;3.42;;;16.20;96.70;;;;;;4932027;29;20048;-67
2023/11/17 00:20:10;;;;;;;12.20;3.08;;;16.20;96.70;;;;;;4932673;29;20039;-67
2023/11/17 00:22:38;;;;;;;15.88;3.45;;;16.30;96.70;;;;;;4932816;29;20392;-67
2023/11/17 00:25:08;;;;;;;11.07;2.83;;;16.30;96.70;;;;;;4931592;29;20067;-67
2023/11/17 00:27:37;;;;;;;16.05;3.45;;;16.20;96.70;;;;;;4932992;29;20055;-67
2023/11/17 00:30:07;;;;;;;13.13;3.25;;;16.20;96.70;;;;;;4931951;29;20515;-67
2023/11/17 00:32:35;;;;;;;12.63;3.13;;;16.20;96.70;;;;;;4931605;29;20118;-67
2023/11/17 00:35:06;;;;;;;16.80;4.05;;;16.10;96.70;;;;;;4931386;29;20047;-67
2023/11/17 00:37:38;;;;;;;14.93;3.28;;;16.10;96.70;;;;;;4939226;29;20047;-67
2023/11/17 00:40:10;;;;;;;22.45;3.55;;;16.20;96.70;;;;;;4934126;29;20043;-67
2023/11/17 00:42:39;;;;;;;20.38;3.40;;;16.20;96.70;;;;;;4936111;28;20068;-67
2023/11/17 00:45:10;;;;;;;14.05;3.47;;;16.20;96.70;;;;;;4930877;29;20050;-67
2023/11/17 00:47:39;;;;;;;18.48;3.50;;;16.10;96.70;;;;;;4930050;29;20043;-67
2023/11/17 00:50:11;;;;;;;15.38;3.67;;;16.10;96.70;;;;;;4952808;28;20047;-67
2023/11/17 00:52:41;;;;;;;18.95;3.40;;;16.10;96.70;;;;;;4931653;29;20535;-67
2023/11/17 00:55:13;;;;;;;15.45;2.95;;;16.10;96.70;;;;;;4931401;29;20424;-67
2023/11/17 00:57:43;;;;;;;17.35;3.58;;;16.10;96.70;;;;;;4929861;29;20127;-67
2023/11/17 01:00:13;;;;;;;13.85;3.85;;;16.00;96.70;;;;;;4931956;29;20046;-67
2023/11/17 01:02:42;;;;;;;20.45;3.50;;;16.00;96.70;;;;;;4946328;28;20047;-67
2023/11/17 01:05:10;;;;;;;15.60;3.17;;;16.00;96.70;;;;;;4931168;29;20436;-67
2023/11/17 01:07:40;;;;;;;17.40;3.85;;;15.90;96.70;;;;;;4935439;29;20095;-67
2023/11/17 01:10:09;;;;;;;16.25;3.35;;;15.90;96.70;;;;;;4931387;29;20118;-67
2023/11/17 01:12:39;;;;;;;13.43;3.25;;;15.90;96.70;;;;;;4929862;29;20523;-67
2023/11/17 01:15:10;;;;;;;11.73;2.80;;;15.90;96.70;;;;;;4923747;29;20044;-67
2023/11/17 01:17:38;;;;;;;22.25;3.58;;;15.90;96.70;;;;;;4929691;29;20725;-67
2023/11/17 01:20:09;;;;;;;17.90;3.22;;;15.80;96.70;;;;;;4931366;29;21238;-67
2023/11/17 01:22:38;;;;;;;18.90;3.65;;;15.90;96.70;;;;;;4931334;29;20039;-67
2023/11/17 01:25:07;;;;;;;16.58;3.08;;;15.90;96.70;;;;;;4928974;29;20817;-67
2023/11/17 01:27:36;;;;;;;17.20;2.63;;;15.90;96.70;;;;;;4928140;29;20047;-67
2023/11/17 01:30:08;;;;;;;15.63;3.35;;;15.90;96.70;;;;;;4929288;29;20071;-67
2023/11/17 01:32:37;;;;;;;15.05;3.17;;;15.90;96.70;;;;;;4931200;29;20504;-67
2023/11/17 01:35:06;;;;;;;20.63;3.95;;;15.90;96.70;;;;;;4929945;29;20043;-67
2023/11/17 01:37:34;;;;;;;14.85;3.38;;;15.90;96.70;;;;;;4929041;29;20051;-67
2023/11/17 01:40:05;;;;;;;12.55;2.97;;;15.90;96.70;;;;;;4933952;29;20043;-67
2023/11/17 01:42:33;;;;;;;11.77;2.75;;;15.90;96.70;;;;;;4930857;29;20039;-67
2023/11/17 01:45:07;;;;;;;14.90;3.08;;;16.00;96.70;;;;;;4931582;29;20095;-66
2023/11/17 01:47:42;;;;;;;18.30;4.70;;;15.90;96.70;;;;;;4929801;29;20138;-67
2023/11/17 01:50:12;;;;;;;16.02;3.13;;;15.90;96.70;;;;;;4930822;29;20055;-68
2023/11/17 01:52:43;;;;;;;15.85;3.53;;;15.90;96.70;;;;;;4930071;29;20055;-67
2023/11/17 01:55:11;;;;;;;19.45;3.53;;;15.90;96.70;;;;;;4937410;29;20054;-67
2023/11/17 01:57:42;;;;;;;19.73;3.67;;;15.90;96.70;;;;;;4930521;29;20063;-67
2023/11/17 02:00:14;;;;;;;23.95;3.22;;;15.90;96.70;;;;;;4929299;29;20039;-63
2023/11/17 02:02:48;;;;;;;15.00;2.95;;;15.90;96.70;;;;;;4922956;29;20423;-63
2023/11/17 02:05:20;;;;;;;16.92;3.75;;;15.90;96.70;;;;;;4928925;29;20079;-63
2023/11/17 02:08:09;;;;;;;13.73;3.53;;;15.80;96.70;;;;;;4930828;29;20102;-63
2023/11/17 02:10:46;;;;;;;13.18;2.80;;;15.80;96.70;;;;;;4931389;29;20127;-63
2023/11/17 02:13:25;;;;;;;13.52;3.20;;;15.80;96.70;;;;;;4930984;29;20047;-63
2023/11/17 02:15:54;;;;;;;18.05;4.38;;;15.80;96.70;;;;;;4930765;29;20043;-63
2023/11/17 02:18:30;;;;;;;17.88;3.45;;;15.70;96.70;;;;;;4927673;29;20071;-63
2023/11/17 02:21:00;;;;;;;15.32;3.25;;;15.80;96.70;;;;;;4936449;29;20079;-63
2023/11/17 02:23:30;;;;;;;13.80;3.30;;;15.80;96.70;;;;;;4933107;29;20047;-63
2023/11/17 02:26:15;;;;;;;16.52;3.47;;;15.80;96.70;;;;;;4925844;29;20051;-63
2023/11/17 02:28:58;;;;;;;15.45;3.38;;;15.80;96.70;;;;;;4930552;29;20070;-63
2023/11/17 02:31:32;;;;;;;18.02;4.15;;;15.80;96.70;;;;;;4929772;29;20059;-63
2023/11/17 02:34:03;;;;;;;13.77;2.92;;;15.70;96.70;;;;;;4930540;29;20051;-64
2023/11/17 02:36:35;;;;;;;10.45;2.80;;;15.70;96.70;;;;;;4929051;29;20051;-63
2023/11/17 02:39:13;;;;;;;16.20;3.38;;;15.70;96.70;;;;;;4928966;29;20082;-63
2023/11/17 02:41:47;;;;;;;15.32;3.38;;;15.70;96.70;;;;;;4931331;29;20127;-64
2023/11/17 02:44:18;;;;;;;16.35;3.58;;;15.70;96.70;;;;;;4929040;29;20724;-63
2023/11/17 02:46:58;;;;;;;17.98;3.20;;;15.70;96.70;;;;;;4928577;29;20051;-63
2023/11/17 02:49:41;;;;;;;13.60;2.95;;;15.70;96.70;;;;;;4928679;29;20094;-63
2023/11/17 02:52:15;;;;;;;16.02;3.35;;;15.70;96.70;;;;;;4930074;29;20048;-63
2023/11/17 02:54:48;;;;;;;19.38;3.40;;;15.70;96.70;;;;;;4929891;29;20043;-63
2023/11/17 02:57:21;;;;;;;14.60;3.95;;;15.60;96.70;;;;;;4929343;29;20142;-63
2023/11/17 02:59:50;;;;;;;15.60;2.97;;;15.60;96.70;;;;;;4930034;29;20044;-63
2023/11/17 03:02:20;;;;;;;15.82;3.47;;;15.60;96.70;;;;;;4930001;29;20047;-63
2023/11/17 03:04:54;;;;;;;12.57;2.70;;;15.60;96.70;;;;;;4929506;29;20695;-63
2023/11/17 03:07:22;;;;;;;17.20;2.72;;;15.60;96.70;;;;;;4929546;29;20118;-63
2023/11/17 03:09:51;;;;;;;13.70;2.92;;;15.60;96.70;;;;;;4929939;29;20076;-63
2023/11/17 03:12:21;;;;;;;15.60;3.25;;;15.60;96.70;;;;;;4928773;29;20400;-63
2023/11/17 03:14:53;;;;;;;14.13;2.85;;;15.60;96.70;;;;;;4927937;29;20048;-63
2023/11/17 03:17:25;;;;;;;10.63;3.05;;;15.60;96.70;;;;;;4927575;29;20067;-63
2023/11/17 03:19:54;;;;;;;19.80;4.13;;;15.60;96.70;;;;;;4922681;29;20484;-63
2023/11/17 03:22:22;;;;;;;12.20;2.90;;;15.60;96.70;;;;;;4929761;29;20048;-63
2023/11/17 03:24:50;;;;;;;20.33;4.05;;;15.60;96.70;;;;;;4929698;29;20484;-63
2023/11/17 03:27:19;;;;;;;14.85;2.90;;;15.60;96.70;;;;;;4929875;29;20071;-63
2023/11/17 03:29:47;;;;;;;19.48;3.60;;;15.70;96.70;;;;;;4929283;29;20060;-63
2023/11/17 03:32:16;;;;;;;16.27;3.35;;;15.70;96.70;;;;;;4938353;29;20044;-63
2023/11/17 03:34:47;;;;;;;20.67;3.83;;;15.60;96.70;;;;;;4928795;29;20401;-63
2023/11/17 03:37:18;;;;;;;13.38;3.80;;;15.70;96.70;;;;;;4928845;29;20056;-63
2023/11/17 03:39:47;;;;;;;16.38;3.00;;;15.70;96.70;;;;;;4928441;29;20058;-63
2023/11/17 03:42:18;;;;;;;17.85;3.15;;;15.70;96.70;;;;;;4930050;29;20127;-63
2023/11/17 03:44:51;;;;;;;14.07;3.28;;;15.70;96.70;;;;;;4924037;29;20147;-63
2023/11/17 03:47:20;;;;;;;16.40;3.13;;;15.70;96.70;;;;;;4931925;29;20062;-63
2023/11/17 03:49:49;;;;;;;18.33;3.85;;;15.70;96.70;;;;;;4933097;29;20040;-63
2023/11/17 03:52:21;;;;;;;16.83;3.95;;;15.70;96.70;;;;;;4941184;29;20047;-63
2023/11/17 03:54:51;;;;;;;14.05;3.45;;;15.70;96.70;;;;;;4933024;29;20396;-63
2023/11/17 03:57:20;;;;;;;16.02;4.38;;;15.70;96.70;;;;;;4929583;29;20172;-63
2023/11/17 03:59:48;;;;;;;19.35;4.38;;;15.70;96.70;;;;;;4924044;29;20046;-64
2023/11/17 04:02:16;;;;;;;24.67;4.10;;;15.70;96.70;;;;;;4929552;29;20081;-63
2023/11/17 04:04:44;;;;;;;18.27;3.63;;;15.70;96.70;;;;;;4933372;29;20039;-63
2023/11/17 04:07:16;;;;;;;19.05;4.05;;;15.70;96.70;;;;;;4925092;29;20392;-63
2023/11/17 04:09:47;;;;;;;22.73;4.07;;;15.70;96.70;;;;;;4928614;29;20442;-63
2023/11/17 04:12:15;;;;;;;20.30;4.05;;;15.70;96.70;;;;;;4933461;29;20052;-63
2023/11/17 04:14:45;;;;;;;16.67;3.88;;;15.70;96.70;;;;;;4936721;29;20050;-63
2023/11/17 04:17:15;;;;;;;18.63;3.42;;;15.70;96.70;;;;;;4934579;28;20043;-63
2023/11/17 04:19:43;;;;;;;19.08;3.55;;;15.60;96.70;;;;;;4931883;29;20047;-63
2023/11/17 04:22:12;;;;;;;20.52;4.03;;;15.60;96.70;;;;;;4921981;29;20058;-63
2023/11/17 04:24:43;;;;;;;19.08;3.90;;;15.60;96.70;;;;;;4931961;29;20044;-63
2023/11/17 04:27:11;;;;;;;18.98;4.03;;;15.60;96.70;;;;;;4933048;29;20592;-63
2023/11/17 04:29:40;;;;;;;21.45;3.53;;;15.60;96.70;;;;;;4935122;29;20126;-63
2023/11/17 04:32:09;;;;;;;17.33;3.50;;;15.60;96.70;;;;;;4931746;29;20043;-63
2023/11/17 04:34:37;;;;;;;23.52;4.00;;;15.60;96.70;;;;;;4932347;29;20695;-63
2023/11/17 04:37:05;;;;;;;17.23;3.40;;;15.50;96.70;;;;;;4932232;29;20049;-63
2023/11/17 04:39:34;;;;;;;26.67;5.13;;;15.50;96.70;;;;;;4932052;29;20039;-63
2023/11/17 04:42:04;;;;;;;24.95;4.97;;;15.50;96.70;;;;;;4940433;29;20131;-63
2023/11/17 04:44:33;;;;;;;20.90;4.22;;;15.50;96.70;;;;;;4932142;29;20406;-63
2023/11/17 04:47:01;;;;;;;17.38;3.70;;;15.50;96.70;;;;;;4932767;29;20802;-63
2023/11/17 04:49:29;;;;;;;21.50;4.10;;;15.50;96.70;;;;;;4930674;28;20055;-62
2023/11/17 04:51:58;;;;;;;20.85;3.63;;;15.50;96.70;;;;;;4932330;29;20467;-64
2023/11/17 04:54:26;;;;;;;22.50;4.00;;;15.50;96.70;;;;;;4931598;29;20055;-62
2023/11/17 04:56:55;;;;;;;19.52;4.18;;;15.50;96.70;;;;;;4931974;29;20095;-62
2023/11/17 04:59:25;;;;;;;19.17;3.85;;;15.50;96.70;;;;;;4930934;29;20043;-62
2023/11/17 05:01:55;;;;;;;17.25;4.22;;;15.50;96.70;;;;;;4924319;29;20054;-63
2023/11/17 05:04:23;;;;;;;19.20;4.18;;;15.50;96.70;;;;;;4931754;29;20066;-63
2023/11/17 05:06:51;;;;;;;19.98;4.38;;;15.40;96.70;;;;;;4936956;29;20066;-62
2023/11/17 05:09:19;;;;;;;19.55;3.58;;;15.40;96.70;;;;;;4934771;28;20126;-62
2023/11/17 05:11:47;;;;;;;22.20;4.28;;;15.40;96.70;;;;;;4931890;29;20052;-62
2023/11/17 05:14:15;;;;;;;18.23;3.92;;;15.40;96.70;;;;;;4931932;29;20091;-62
2023/11/17 05:16:45;;;;;;;22.00;4.68;;;15.30;96.70;;;;;;4931783;29;20055;-62
2023/11/17 05:19:14;;;;;;;17.33;3.88;;;15.30;96.70;;;;;;4931909;29;20044;-62
2023/11/17 05:21:43;;;;;;;20.40;3.95;;;15.30;96.70;;;;;;4932343;29;20651;-62
2023/11/17 05:24:11;;;;;;;18.73;4.03;;;15.30;96.70;;;;;;4931247;29;20039;-62
2023/11/17 05:26:39;;;;;;;16.77;3.70;;;15.30;96.70;;;;;;4934387;29;20031;-62
2023/11/17 05:29:06;;;;;;;19.80;4.43;;;15.40;96.70;;;;;;4923547;29;20056;-62
2023/11/17 05:31:36;;;;;;;21.83;3.97;;;15.40;96.70;;;;;;4930810;29;20098;-62
2023/11/17 05:34:05;;;;;;;20.95;4.65;;;15.40;96.70;;;;;;4931501;29;20071;-62
2023/11/17 05:36:39;;;;;;;17.33;4.05;;;15.40;96.70;;;;;;4931451;29;20138;-62
2023/11/17 05:39:08;;;;;;;19.67;3.95;;;15.40;96.70;;;;;;4929941;29;20044;-62
2023/11/17 05:41:37;;;;;;;18.65;3.88;;;15.40;96.70;;;;;;4923948;29;20048;-62
2023/11/17 05:44:06;;;;;;;19.65;3.70;;;15.40;96.70;;;;;;4931267;29;20127;-62
2023/11/17 05:46:34;;;;;;;20.45;3.75;;;15.40;96.70;;;;;;4931035;29;20123;-62
2023/11/17 05:49:03;;;;;;;24.98;4.65;;;15.40;96.70;;;;;;4930768;29;20112;-62
2023/11/17 05:51:33;;;;;;;16.23;3.83;;;15.40;96.70;;;;;;4930547;29;20044;-62
2023/11/17 05:54:02;;;;;;;18.30;3.72;;;15.40;96.70;;;;;;4922687;29;20424;-62
2023/11/17 05:56:29;;;;;;;13.77;2.65;;;15.40;96.70;;;;;;4930839;29;20500;-63
2023/11/17 05:58:58;;;;;;;22.20;4.93;;;15.40;96.70;;;;;;4930882;29;20051;-62
2023/11/17 06:01:26;;;;;;;21.33;4.55;;;15.40;96.70;;;;;;4931106;29;20433;-62
2023/11/17 06:03:55;;;;;;;23.05;4.70;;;15.30;96.70;;;;;;4931463;29;20560;-63
2023/11/17 06:06:23;;;;;;;17.95;4.10;;;15.30;96.70;;;;;;4929434;29;20468;-62
2023/11/17 06:08:53;;;;;;;22.85;5.47;;;15.20;96.70;;;;;;4930544;29;20404;-62
2023/11/17 06:11:24;;;;;;;24.42;5.15;;;15.20;96.70;;;;;;4934520;29;20070;-62
2023/11/17 06:13:52;;;;;;;20.80;4.13;;;15.20;96.70;;;;;;4941091;28;20047;-63
2023/11/17 06:16:23;;;;;;;18.42;4.15;;;15.10;96.70;;;;;;4930447;29;20047;-62
2023/11/17 06:18:52;;;;;;;21.25;4.15;;;15.10;96.70;;;;;;4930155;29;20126;-62
2023/11/17 06:21:20;;;;;;;20.77;4.75;;;15.00;96.70;;;;;;4930482;29;20052;-62
2023/11/17 06:23:49;;;;;;;18.75;4.22;;;15.00;96.70;;;;;;4930372;29;20052;-62
2023/11/17 06:26:19;;;;;;;22.27;4.40;;;15.00;96.70;;;;;;4932771;29;20047;-63
2023/11/17 06:28:48;;;;;;;24.00;4.53;;;15.00;96.70;;;;;;4932306;28;20058;-62
2023/11/17 06:31:17;;;;;;;21.63;4.32;;;15.00;96.70;;;;;;4921621;29;20048;-62
2023/11/17 06:33:45;;;;;;;22.25;4.03;;;15.00;96.70;;;;;;4938288;28;20086;-62
2023/11/17 06:36:13;;;;;;;13.57;3.70;;;15.00;96.70;;;;;;4930314;29;20059;-62
2023/11/17 06:38:45;;;;;;;17.08;3.78;;;15.00;96.70;;;;;;4930290;29;20075;-62
2023/11/17 06:41:14;;;;;;;19.67;3.55;;;14.90;96.70;;;;;;4928871;29;20427;-62
2023/11/17 06:43:44;;;;;;;19.00;3.78;;;14.90;96.70;;;;;;4930024;29;20067;-62
2023/11/17 06:46:13;;;;;;;21.63;4.78;;;14.90;96.70;;;;;;4924152;29;20066;-62
2023/11/17 06:48:41;;;;;;;17.35;4.00;;;14.90;96.70;;;;;;4933812;29;20625;-62
2023/11/17 06:51:09;;;;;;;32.25;4.20;;;15.00;96.70;;;;;;4926412;29;20059;-62
2023/11/17 06:53:38;;;;;;;18.80;4.28;;;15.00;96.70;;;;;;4930748;29;20460;-62
2023/11/17 06:56:06;;;;;;;22.65;3.80;;;15.00;96.70;;;;;;4930262;29;20860;-62
2023/11/17 06:58:34;;;;;;;16.70;3.90;;;15.00;96.70;;;;;;4937917;29;20046;-62
2023/11/17 07:01:04;;;;;;;21.88;4.38;;;15.00;96.70;;;;;;4930363;29;20059;-62
2023/11/17 07:03:33;;;;;;;20.77;4.15;;;15.00;96.70;;;;;;4929882;29;20063;-62
2023/11/17 07:06:01;;;;;;;22.73;4.78;;;15.00;96.70;;;;;;4930039;29;20384;-62
2023/11/17 07:08:29;;;;;;;21.67;4.93;;;15.00;96.70;;;;;;4922927;29;20144;-62
2023/11/17 07:10:57;;;;;;;22.80;4.90;;;14.90;96.70;;;;;;4938018;29;20046;-62
2023/11/17 07:13:26;;;;;;;24.52;5.47;;;14.90;96.70;;;;;;4930275;29;20044;-62
2023/11/17 07:15:55;;;;;;;18.55;4.70;;;14.90;96.70;;;;;;4929866;29;20094;-62
2023/11/17 07:18:25;;;;;;;26.92;5.43;;;14.90;96.70;;;;;;4931168;29;20409;-62
2023/11/17 07:20:54;;;;;;;20.98;4.85;;;14.90;96.70;;;;;;4933676;29;20534;-62
2023/11/17 07:23:22;;;;;;;19.58;5.15;;;14.90;96.70;;;;;;4931515;29;20126;-62
2023/11/17 07:25:50;;;;;;;18.48;3.53;;;14.90;96.70;;;;;;4925393;29;20046;-62
2023/11/17 07:28:19;;;;;;;19.83;4.28;;;14.90;96.70;;;;;;4933760;29;20095;-62
2023/11/17 07:30:48;;;;;;;18.30;4.15;;;14.90;96.70;;;;;;4928575;29;20499;-62
2023/11/17 07:33:18;;;;;;;19.83;4.57;;;15.00;96.70;;;;;;4932665;29;20143;-62
2023/11/17 07:35:48;;;;;;;23.35;4.60;;;15.00;96.70;;;;;;4928479;29;20036;-63
2023/11/17 07:38:16;;;;;;;21.25;4.43;;;15.00;96.70;;;;;;4933406;29;20122;-63
2023/11/17 07:40:44;;;;;;;16.17;4.10;;;15.00;96.70;;;;;;4933779;29;20095;-63
2023/11/17 07:43:12;;;;;;;20.45;4.32;;;15.00;96.70;;;;;;4933219;29;20055;-63
2023/11/17 07:45:42;;;;;;;22.02;4.25;;;15.00;96.70;;;;;;4932262;29;20616;-63
2023/11/17 07:48:11;;;;;;;22.02;3.97;;;15.00;96.70;;;;;;4932699;29;20066;-62
2023/11/17 07:50:41;;;;;;;15.98;3.40;;;15.00;96.70;;;;;;4932763;29;20047;-63
2023/11/17 07:53:11;;;;;;;14.50;2.83;;;15.10;96.70;;;;;;4934202;29;20043;-63
2023/11/17 07:55:41;;;;;;;16.77;4.07;;;15.20;96.70;;;;;;4937917;28;20119;-66
2023/11/17 07:58:11;;;;;;;17.98;4.20;;;15.30;96.70;;;;;;4931926;29;20127;-66
2023/11/17 08:00:39;;;;;;;19.23;3.95;;;15.30;96.70;;;;;;4931738;29;20123;-67
2023/11/17 08:03:10;;;;;;;18.67;3.97;;;15.40;96.70;;;;;;4939725;29;20134;-67
2023/11/17 08:05:39;;;;;;;16.60;3.50;;;15.50;96.70;;;;;;4932425;29;20824;-67
2023/11/17 08:08:08;;;;;;;15.07;3.38;;;15.70;96.70;;;;;;4932595;29;20783;-72
2023/11/17 08:10:38;;;;;;;17.83;3.78;;;15.70;96.70;;;;;;4929569;29;20159;-67
2023/11/17 08:13:07;;;;;;;16.05;3.42;;;15.80;96.70;;;;;;4941104;29;20570;-68
2023/11/17 08:15:35;;;;;;;19.40;4.00;;;15.90;96.70;;;;;;4932176;29;20046;-67
2023/11/17 08:18:04;;;;;;;16.67;3.22;;;15.90;96.70;;;;;;4925571;29;20456;-66
2023/11/17 08:20:32;;;;;;;18.05;3.40;;;16.00;96.70;;;;;;4933270;29;20127;-66
2023/11/17 08:23:00;;;;;;;16.52;3.85;;;16.10;96.70;;;;;;4937122;28;20047;-66
2023/11/17 08:25:30;;;;;;;14.18;3.42;;;16.20;96.70;;;;;;4931019;29;20126;-66
2023/11/17 08:28:01;;;;;;;20.63;3.88;;;16.20;96.70;;;;;;4931732;29;20043;-67
2023/11/17 08:30:30;;;;;;;21.13;3.88;;;16.30;96.70;;;;;;4923313;29;20512;-68
2023/11/17 08:33:13;;;;;;;21.00;4.22;;;16.40;96.70;;;;;;4937513;29;20051;-68
2023/11/17 08:35:42;;;;;;;24.48;4.35;;;16.30;96.70;;;;;;4931497;29;20059;-67
2023/11/17 08:38:10;;;;;;;18.55;3.67;;;16.30;96.70;;;;;;4931956;29;20054;-66
2023/11/17 08:40:38;;;;;;;18.27;3.47;;;16.40;96.70;;;;;;4932461;29;20054;-66
2023/11/17 08:43:09;;;;;;;17.73;3.80;;;16.40;96.70;;;;;;4932864;29;20059;-66
2023/11/17 08:45:37;;;;;;;15.30;3.78;;;16.50;96.70;;;;;;4932905;29;20388;-66
2023/11/17 08:48:07;;;;;;;19.52;3.53;;;16.40;96.70;;;;;;4932273;29;20115;-66
2023/11/17 08:51:01;;;;;;;18.17;3.58;;;16.60;96.70;;;;;;4931690;29;20516;-77
2023/11/17 08:53:29;;;;;;;13.30;3.40;;;16.70;96.70;;;;;;4927254;29;20048;-71
2023/11/17 08:56:00;;;;;;;15.43;3.85;;;16.80;96.70;;;;;;4932199;29;20044;-71
2023/11/17 08:58:30;;;;;;;17.08;3.58;;;16.90;96.70;;;;;;4932668;29;20620;-72
2023/11/17 09:00:58;;;;;;;17.70;3.53;;;16.90;96.70;;;;;;4939781;29;20047;-71
2023/11/17 09:03:27;;;;;;;23.92;3.78;;;17.00;96.70;;;;;;4932399;29;20047;-71
2023/11/17 09:05:55;;;;;;;18.65;5.03;;;17.00;96.70;;;;;;4933088;29;20480;-70
2023/11/17 09:08:23;;;;;;;19.38;3.85;;;17.10;96.70;;;;;;4936071;29;20047;-70
2023/11/17 09:10:51;;;;;;;19.05;3.33;;;17.20;96.70;;;;;;4928867;29;20083;-70
2023/11/17 09:13:20;;;;;;;20.08;3.08;;;17.30;96.70;;;;;;4931979;29;20050;-70
2023/11/17 09:15:50;;;;;;;20.60;3.97;;;17.30;96.70;;;;;;4931916;29;20102;-70
2023/11/17 09:18:19;;;;;;;19.17;3.78;;;17.40;96.70;;;;;;4931965;29;20516;-69
2023/11/17 09:20:48;;;;;;;16.90;4.07;;;17.40;96.70;;;;;;4932119;29;20449;-70
2023/11/17 09:23:18;;;;;;;15.32;3.72;;;17.40;96.70;;;;;;4932401;29;20061;-69
2023/11/17 09:25:46;;;;;;;19.67;3.92;;;17.40;96.70;;;;;;4933132;29;20067;-69
2023/11/17 09:28:16;;;;;;;16.90;4.15;;;17.50;96.70;;;;;;4931704;29;20114;-70
2023/11/17 09:30:44;;;;;;;20.73;3.83;;;17.50;96.70;;;;;;4932271;29;20066;-70
2023/11/17 09:33:18;;;;;;;16.88;2.95;;;17.50;96.70;;;;;;4936647;29;20580;-70
2023/11/17 09:35:48;;;;;;;16.42;3.10;;;17.50;96.70;;;;;;4933599;28;20075;-70
2023/11/17 09:38:19;;;;;;;15.93;3.45;;;17.40;96.70;;;;;;4930367;29;20120;-69
2023/11/17 09:40:58;;;;;;;16.73;3.58;;;17.50;96.70;;;;;;4939612;28;21128;-70
2023/11/17 09:43:36;;;;;;;17.35;3.53;;;17.50;96.70;;;;;;4931803;29;20044;-70
2023/11/17 09:46:06;;;;;;;17.35;3.13;;;17.60;96.70;;;;;;4939174;29;20038;-69
2023/11/17 09:48:38;;;;;;;14.48;3.17;;;17.80;96.70;;;;;;4930297;29;20043;-70
2023/11/17 09:51:07;;;;;;;16.60;3.60;;;17.80;96.70;;;;;;4924292;29;20055;-70
2023/11/17 09:53:38;;;;;;;13.38;2.85;;;17.80;96.70;;;;;;4931625;29;20044;-70
2023/11/17 09:56:09;;;;;;;14.10;2.88;;;17.70;96.70;;;;;;4934454;29;20046;-71
2023/11/17 09:58:37;;;;;;;15.75;3.70;;;17.70;96.70;;;;;;4931514;29;20075;-71
2023/11/17 10:01:10;;;;;;;13.50;3.10;;;17.70;96.70;;;;;;4930468;29;20043;-67
2023/11/17 10:03:41;;;;;;;13.00;2.95;;;17.90;96.70;;;;;;4930345;29;20076;-67
2023/11/17 10:06:14;;;;;;;10.63;2.58;;;18.00;96.70;;;;;;4931044;29;20099;-67
2023/11/17 10:08:43;;;;;;;11.68;2.75;;;18.20;96.70;;;;;;4931297;29;20040;-67
2023/11/17 10:11:15;;;;;;;15.70;3.67;;;18.30;96.70;;;;;;4930749;29;20138;-67
2023/11/17 10:13:45;;;;;;;11.75;2.67;;;18.10;96.70;;;;;;4926786;29;20043;-67
2023/11/17 10:16:15;;;;;;;12.32;2.90;;;18.10;96.70;;;;;;4930277;29;20526;-71
2023/11/17 10:18:47;;;;;;;12.85;3.00;;;18.10;96.70;;;;;;4924808;29;20044;-72
2023/11/17 10:21:19;;;;;;;12.32;2.75;;;18.20;96.70;;;;;;4929803;29;20043;-70
2023/11/17 10:23:53;;;;;;;13.73;2.63;;;18.30;96.70;;;;;;4930379;29;20044;-70
2023/11/17 10:26:22;;;;;;;18.75;4.43;;;18.40;96.70;;;;;;4930348;29;20047;-65
2023/11/17 10:28:51;;;;;;;15.43;2.97;;;18.50;96.70;;;;;;4930268;29;20040;-65
2023/11/17 10:31:20;;;;;;;12.98;2.88;;;18.50;96.70;;;;;;4929952;29;20500;-66
2023/11/17 10:33:53;;;;;;;18.27;3.28;;;18.50;96.70;;;;;;4929841;29;20127;-65
2023/11/17 10:36:24;;;;;;;14.70;3.75;;;18.50;96.70;;;;;;4926584;29;20546;-64
2023/11/17 10:39:07;;;;;;;18.65;3.22;;;18.60;96.70;;;;;;4930596;29;20063;-63
2023/11/17 10:41:35;;;;;;;17.75;3.65;;;18.60;96.70;;;;;;4930193;29;20116;-64
2023/11/17 10:44:08;;;;;;;15.15;2.78;;;18.60;96.70;;;;;;4929656;29;20043;-64
2023/11/17 10:46:44;;;;;;;10.18;2.45;;;18.60;96.70;;;;;;4922960;29;20052;-64
2023/11/17 10:49:16;;;;;;;11.55;2.95;;;18.50;96.70;;;;;;4930420;29;20051;-64
2023/11/17 10:51:51;;;;;;;15.98;2.78;;;18.40;96.70;;;;;;4930479;29;20048;-64
2023/11/17 10:54:20;;;;;;;22.00;2.95;;;18.50;96.70;;;;;;4933106;29;20054;-63
2023/11/17 10:56:49;;;;;;;11.43;2.72;;;18.60;96.70;;;;;;4934161;29;20046;-65
2023/11/17 10:59:21;;;;;;;14.18;3.00;;;18.50;96.70;;;;;;4934270;29;20464;-66
2023/11/17 11:01:51;;;;;;;18.98;2.85;;;18.60;96.70;;;;;;4934316;29;20102;-64
2023/11/17 11:04:26;;;;;;;12.35;2.97;;;18.70;96.70;;;;;;4933830;29;20050;-65
2023/11/17 11:06:55;;;;;;;13.63;2.97;;;18.80;96.70;;;;;;4941976;29;20047;-67
2023/11/17 11:09:30;;;;;;;17.73;3.30;;;18.80;96.70;;;;;;4934135;29;20055;-66
2023/11/17 11:11:59;;;;;;;17.23;3.15;;;18.80;96.70;;;;;;4933570;29;20079;-66
2023/11/17 11:14:29;;;;;;;16.85;2.58;;;18.80;96.70;;;;;;4933773;29;20043;-65
2023/11/17 11:16:57;;;;;;;22.75;4.82;;;18.80;96.70;;;;;;4933726;29;20048;-65
2023/11/17 11:19:31;;;;;;;13.07;2.45;;;18.90;96.70;;;;;;4925817;29;20071;-69
2023/11/17 11:22:17;;;;;;;15.15;2.92;;;18.90;96.70;;;;;;4934541;29;20122;-70
2023/11/17 11:24:46;;;;;;;16.48;3.20;;;18.90;96.70;;;;;;4932697;29;20102;-70
2023/11/17 11:27:15;;;;;;;14.48;3.33;;;19.00;96.70;;;;;;4933307;29;20036;-69
2023/11/17 11:29:44;;;;;;;15.15;3.53;;;19.00;96.70;;;;;;4925525;29;20113;-69
2023/11/17 11:32:13;;;;;;;16.70;3.35;;;19.00;96.70;;;;;;4934490;29;20070;-70
2023/11/17 11:34:43;;;;;;;13.65;3.13;;;19.00;96.70;;;;;;4933851;29;20103;-69
2023/11/17 11:37:11;;;;;;;20.02;4.05;;;19.00;96.70;;;;;;4934106;29;20044;-69
2023/11/17 11:39:41;;;;;;;12.05;2.80;;;19.10;96.70;;;;;;4941627;29;20042;-69
2023/11/17 11:42:11;;;;;;;18.17;3.15;;;19.10;96.70;;;;;;4941318;29;20636;-69
2023/11/17 11:44:40;;;;;;;12.70;2.13;;;19.20;96.70;;;;;;4933765;29;20048;-69
2023/11/17 11:47:08;;;;;;;18.05;3.35;;;19.20;96.70;;;;;;4933435;29;20121;-69
2023/11/17 11:49:37;;;;;;;17.67;3.85;;;19.20;96.70;;;;;;4931490;29;20090;-69
2023/11/17 11:52:13;;;;;;;16.13;3.22;;;19.20;96.70;;;;;;4941472;29;20122;-68
2023/11/17 11:54:42;;;;;;;17.80;3.30;;;19.20;96.70;;;;;;4926693;29;20116;-68
2023/11/17 11:57:31;;;;;;;12.15;2.90;;;19.30;96.70;;;;;;4933832;29;20039;-68
2023/11/17 12:00:14;;;;;;;12.40;2.75;;;19.30;96.70;;;;;;4932961;29;20051;-68
2023/11/17 12:03:01;;;;;;;13.63;2.85;;;19.20;96.70;;;;;;4933874;29;20048;-64
2023/11/17 12:05:33;;;;;;;14.80;3.53;;;19.30;96.70;;;;;;4940692;29;20072;-64
2023/11/17 12:08:19;;;;;;;12.40;2.60;;;19.40;96.70;;;;;;4932502;28;20206;-64
2023/11/17 12:10:48;;;;;;;9.35;2.33;;;19.60;96.70;;;;;;4932817;29;20508;-64
2023/11/17 12:13:41;;;;;;;13.18;3.35;;;19.50;96.70;;;;;;4932319;29;20040;-64
2023/11/17 12:16:12;;;;;;;16.75;3.05;;;19.40;96.70;;;;;;4930922;29;20087;-64
2023/11/17 12:18:50;;;;;;;13.63;2.47;;;19.30;96.70;;;;;;4932681;29;20069;-64
2023/11/17 12:21:20;;;;;;;14.32;2.97;;;19.30;96.70;;;;;;4932343;29;20490;-64
2023/11/17 12:23:53;;;;;;;16.75;3.33;;;19.40;96.70;;;;;;4932763;29;20491;-64
2023/11/17 12:26:24;;;;;;;18.48;3.70;;;19.40;96.70;;;;;;4931056;29;20126;-64
2023/11/17 12:28:53;;;;;;;15.32;3.20;;;19.30;96.70;;;;;;4932270;29;20059;-64
2023/11/17 12:31:22;;;;;;;15.68;3.00;;;19.40;96.70;;;;;;4932218;29;20132;-68
2023/11/17 12:33:54;;;;;;;12.93;2.63;;;19.50;96.70;;;;;;4931870;29;20044;-68
2023/11/17 12:36:24;;;;;;;16.08;3.38;;;19.30;96.70;;;;;;4935332;29;20541;-68
2023/11/17 12:38:57;;;;;;;16.08;2.80;;;19.30;96.70;;;;;;4932153;29;20056;-68
2023/11/17 12:41:27;;;;;;;13.05;2.50;;;19.30;96.70;;;;;;4932613;29;20099;-68
2023/11/17 12:43:57;;;;;;;14.82;3.15;;;19.50;96.70;;;;;;4934364;29;20044;-68
2023/11/17 12:46:26;;;;;;;10.88;2.33;;;19.40;96.70;;;;;;4932407;29;20044;-68
2023/11/17 12:48:54;;;;;;;14.77;2.67;;;19.30;96.70;;;;;;4931774;29;20047;-68
2023/11/17 12:51:24;;;;;;;11.20;2.92;;;19.30;96.70;;;;;;4932043;29;20079;-68